sensor_id;sensor_type;location;lat;lon;timestamp;pressure;altitude;pressure_sealevel;temperature;humidity
30421;BME280;17218;54.070;10.012;2023-03-01T00:01:14;102970.38;;;-0.44;100.00
30421;BME280;17218;54.070;10.012;2023-03-01T00:03:41;102982.94;;;-0.35;100.00
30421;BME280;17218;54.070;10.012;2023-03-01T00:06:07;102983.78;;;-0.35;100.00
30421;BME280;17218;54.070;10.012;2023-03-01T00:08:35;102982.38;;;-0.31;100.00
30421;BME280;17218;54.070;10.012;2023-03-01T00:11:04;102977.41;;;-0.18;100.00
30421;BME280;17218;54.070;10.012;2023-03-01T00:13:31;102976.75;;;-0.03;100.00
30421;BME280;17218;54.070;10.012;2023-03-01T00:15:58;102974.66;;;0.15;100.00
30421;BME280;17218;54.070;10.012;2023-03-01T00:18:24;102983.19;;;0.28;100.00
30421;BME280;17218;54.070;10.012;2023-03-01T00:20:53;102978.19;;;0.41;100.00
30421;BME280;17218;54.070;10.012;2023-03-01T00:23:20;102979.38;;;0.46;100.00
30421;BME280;17218;54.070;10.012;2023-03-01T00:25:48;102982.50;;;0.54;100.00
30421;BME280;17218;54.070;10.012;2023-03-01T00:28:15;102985.59;;;0.62;100.00
30421;BME280;17218;54.070;10.012;2023-03-01T00:30:42;102983.56;;;0.70;100.00
30421;BME280;17218;54.070;10.012;2023-03-01T00:33:09;102987.44;;;0.77;100.00
30421;BME280;17218;54.070;10.012;2023-03-01T00:35:35;102978.22;;;0.79;100.00
30421;BME280;17218;54.070;10.012;2023-03-01T00:38:02;102977.66;;;0.83;100.00
30421;BME280;17218;54.070;10.012;2023-03-01T00:40:31;102983.63;;;0.83;100.00
30421;BME280;17218;54.070;10.012;2023-03-01T00:43:00;102973.75;;;0.88;100.00
30421;BME280;17218;54.070;10.012;2023-03-01T00:45:27;102975.50;;;1.01;100.00
30421;BME280;17218;54.070;10.012;2023-03-01T00:47:53;102984.34;;;1.06;100.00
30421;BME280;17218;54.070;10.012;2023-03-01T00:50:20;102976.03;;;1.09;100.00
30421;BME280;17218;54.070;10.012;2023-03-01T00:52:46;102987.09;;;1.10;100.00
30421;BME280;17218;54.070;10.012;2023-03-01T00:55:13;102987.53;;;1.16;100.00
30421;BME280;17218;54.070;10.012;2023-03-01T00:57:39;102988.16;;;1.25;100.00
30421;BME280;17218;54.070;10.012;2023-03-01T01:00:09;102993.00;;;1.34;100.00
30421;BME280;17218;54.070;10.012;2023-03-01T01:02:37;102994.00;;;1.36;100.00
30421;BME280;17218;54.070;10.012;2023-03-01T01:05:04;102995.19;;;1.41;100.00
30421;BME280;17218;54.070;10.012;2023-03-01T01:07:31;102994.28;;;1.41;100.00
30421;BME280;17218;54.070;10.012;2023-03-01T01:09:57;102994.97;;;1.38;100.00
30421;BME280;17218;54.070;10.012;2023-03-01T01:12:24;102983.88;;;1.38;100.00
30421;BME280;17218;54.070;10.012;2023-03-01T01:14:50;102978.25;;;1.30;100.00
30421;BME280;17218;54.070;10.012;2023-03-01T01:17:18;102971.31;;;1.15;100.00
30421;BME280;17218;54.070;10.012;2023-03-01T01:19:44;102965.53;;;1.18;100.00
30421;BME280;17218;54.070;10.012;2023-03-01T01:22:11;102963.84;;;1.18;100.00
30421;BME280;17218;54.070;10.012;2023-03-01T01:24:37;102969.56;;;1.14;100.00
30421;BME280;17218;54.070;10.012;2023-03-01T01:27:04;102967.09;;;1.16;100.00
30421;BME280;17218;54.070;10.012;2023-03-01T01:29:31;102951.31;;;1.22;100.00
30421;BME280;17218;54.070;10.012;2023-03-01T01:31:57;102950.03;;;1.28;100.00
30421;BME280;17218;54.070;10.012;2023-03-01T01:34:25;102950.03;;;1.28;100.00
30421;BME280;17218;54.070;10.012;2023-03-01T01:36:52;102956.16;;;1.30;100.00
30421;BME280;17218;54.070;10.012;2023-03-01T01:39:19;102939.34;;;1.34;100.00
30421;BME280;17218;54.070;10.012;2023-03-01T01:41:46;102946.91;;;1.33;100.00
30421;BME280;17218;54.070;10.012;2023-03-01T01:44:16;102942.47;;;1.30;100.00
30421;BME280;17218;54.070;10.012;2023-03-01T01:46:44;102938.53;;;1.22;100.00
30421;BME280;17218;54.070;10.012;2023-03-01T01:49:19;102937.19;;;1.27;100.00
30421;BME280;17218;54.070;10.012;2023-03-01T01:51:51;102927.06;;;1.28;100.00
30421;BME280;17218;54.070;10.012;2023-03-01T01:54:24;102929.19;;;1.22;100.00
30421;BME280;17218;54.070;10.012;2023-03-01T01:56:55;102935.38;;;1.12;100.00
30421;BME280;17218;54.070;10.012;2023-03-01T01:59:23;102938.91;;;1.14;100.00
30421;BME280;17218;54.070;10.012;2023-03-01T02:01:51;102936.38;;;1.14;100.00
30421;BME280;17218;54.070;10.012;2023-03-01T02:04:17;102932.25;;;1.16;100.00
30421;BME280;17218;54.070;10.012;2023-03-01T02:06:50;102942.03;;;1.10;100.00
30421;BME280;17218;54.070;10.012;2023-03-01T02:09:20;102937.28;;;1.03;100.00
30421;BME280;17218;54.070;10.012;2023-03-01T02:11:48;102935.13;;;0.95;100.00
30421;BME280;17218;54.070;10.012;2023-03-01T02:14:17;102933.56;;;0.98;100.00
30421;BME280;17218;54.070;10.012;2023-03-01T02:16:43;102936.78;;;0.95;100.00
30421;BME280;17218;54.070;10.012;2023-03-01T02:19:14;102927.25;;;0.92;100.00
30421;BME280;17218;54.070;10.012;2023-03-01T02:21:51;102937.66;;;0.95;100.00
30421;BME280;17218;54.070;10.012;2023-03-01T02:24:28;102934.66;;;1.01;100.00
30421;BME280;17218;54.070;10.012;2023-03-01T02:27:00;102926.38;;;1.05;100.00
30421;BME280;17218;54.070;10.012;2023-03-01T02:29:28;102922.97;;;1.05;100.00
30421;BME280;17218;54.070;10.012;2023-03-01T02:31:57;102921.97;;;1.03;100.00
30421;BME280;17218;54.070;10.012;2023-03-01T02:34:24;102918.91;;;0.95;100.00
30421;BME280;17218;54.070;10.012;2023-03-01T02:36:54;102916.63;;;0.86;100.00
30421;BME280;17218;54.070;10.012;2023-03-01T02:39:25;102917.38;;;0.85;100.00
30421;BME280;17218;54.070;10.012;2023-03-01T02:41:54;102917.97;;;0.81;100.00
30421;BME280;17218;54.070;10.012;2023-03-01T02:44:22;102918.75;;;0.80;100.00
30421;BME280;17218;54.070;10.012;2023-03-01T02:46:52;102909.00;;;0.74;100.00
30421;BME280;17218;54.070;10.012;2023-03-01T02:49:21;102909.69;;;0.71;100.00
30421;BME280;17218;54.070;10.012;2023-03-01T02:52:01;102906.41;;;0.61;100.00
30421;BME280;17218;54.070;10.012;2023-03-01T02:54:38;102897.56;;;0.55;100.00
30421;BME280;17218;54.070;10.012;2023-03-01T02:57:06;102893.25;;;0.42;100.00
30421;BME280;17218;54.070;10.012;2023-03-01T02:59:35;102898.59;;;0.33;100.00
30421;BME280;17218;54.070;10.012;2023-03-01T03:02:06;102891.88;;;0.22;100.00
30421;BME280;17218;54.070;10.012;2023-03-01T03:04:32;102891.41;;;0.16;100.00
30421;BME280;17218;54.070;10.012;2023-03-01T03:06:59;102892.22;;;0.03;100.00
30421;BME280;17218;54.070;10.012;2023-03-01T03:09:25;102886.59;;;-0.17;100.00
30421;BME280;17218;54.070;10.012;2023-03-01T03:11:51;102888.66;;;0.01;100.00
30421;BME280;17218;54.070;10.012;2023-03-01T03:14:18;102892.06;;;0.13;100.00
30421;BME280;17218;54.070;10.012;2023-03-01T03:16:46;102884.31;;;0.23;100.00
30421;BME280;17218;54.070;10.012;2023-03-01T03:19:14;102886.53;;;0.19;100.00
30421;BME280;17218;54.070;10.012;2023-03-01T03:21:41;102894.19;;;0.19;100.00
30421;BME280;17218;54.070;10.012;2023-03-01T03:24:08;102889.97;;;0.19;100.00
30421;BME280;17218;54.070;10.012;2023-03-01T03:26:35;102892.41;;;0.06;100.00
30421;BME280;17218;54.070;10.012;2023-03-01T03:29:01;102889.88;;;0.06;100.00
30421;BME280;17218;54.070;10.012;2023-03-01T03:31:27;102893.53;;;0.09;100.00
30421;BME280;17218;54.070;10.012;2023-03-01T03:33:54;102900.63;;;0.14;100.00
30421;BME280;17218;54.070;10.012;2023-03-01T03:36:24;102887.66;;;0.10;100.00
30421;BME280;17218;54.070;10.012;2023-03-01T03:38:51;102889.75;;;0.16;100.00
30421;BME280;17218;54.070;10.012;2023-03-01T03:41:18;102878.22;;;0.21;100.00
30421;BME280;17218;54.070;10.012;2023-03-01T03:43:44;102892.31;;;0.16;100.00
30421;BME280;17218;54.070;10.012;2023-03-01T03:46:11;102880.78;;;0.09;100.00
30421;BME280;17218;54.070;10.012;2023-03-01T03:48:40;102868.28;;;0.01;100.00
30421;BME280;17218;54.070;10.012;2023-03-01T03:51:10;102864.06;;;-0.11;100.00
30421;BME280;17218;54.070;10.012;2023-03-01T03:53:38;102867.72;;;-0.31;100.00
30421;BME280;17218;54.070;10.012;2023-03-01T03:56:05;102865.53;;;-0.51;100.00
30421;BME280;17218;54.070;10.012;2023-03-01T03:58:32;102863.56;;;-0.43;100.00
30421;BME280;17218;54.070;10.012;2023-03-01T04:00:59;102863.44;;;-0.32;100.00
30421;BME280;17218;54.070;10.012;2023-03-01T04:03:27;102868.41;;;-0.22;100.00
30421;BME280;17218;54.070;10.012;2023-03-01T04:05:54;102862.31;;;-0.12;100.00
30421;BME280;17218;54.070;10.012;2023-03-01T04:08:21;102859.41;;;-0.05;100.00
30421;BME280;17218;54.070;10.012;2023-03-01T04:10:51;102864.81;;;0.12;100.00
30421;BME280;17218;54.070;10.012;2023-03-01T04:13:19;102864.81;;;0.24;100.00
30421;BME280;17218;54.070;10.012;2023-03-01T04:15:46;102867.78;;;0.30;100.00
30421;BME280;17218;54.070;10.012;2023-03-01T04:18:14;102871.00;;;0.28;100.00
30421;BME280;17218;54.070;10.012;2023-03-01T04:20:41;102854.28;;;0.19;100.00
30421;BME280;17218;54.070;10.012;2023-03-01T04:23:11;102855.44;;;-0.01;100.00
30421;BME280;17218;54.070;10.012;2023-03-01T04:25:42;102855.78;;;-0.08;100.00
30421;BME280;17218;54.070;10.012;2023-03-01T04:28:10;102866.50;;;-0.13;100.00
30421;BME280;17218;54.070;10.012;2023-03-01T04:30:38;102864.75;;;-0.14;100.00
30421;BME280;17218;54.070;10.012;2023-03-01T04:33:05;102870.97;;;-0.10;100.00
30421;BME280;17218;54.070;10.012;2023-03-01T04:35:32;102879.16;;;-0.14;100.00
30421;BME280;17218;54.070;10.012;2023-03-01T04:37:59;102883.34;;;-0.15;100.00
30421;BME280;17218;54.070;10.012;2023-03-01T04:40:26;102885.69;;;-0.18;100.00
30421;BME280;17218;54.070;10.012;2023-03-01T04:42:52;102892.09;;;-0.47;100.00
30421;BME280;17218;54.070;10.012;2023-03-01T04:45:20;102873.50;;;-0.46;100.00
30421;BME280;17218;54.070;10.012;2023-03-01T04:47:47;102881.59;;;-0.40;100.00
30421;BME280;17218;54.070;10.012;2023-03-01T04:50:16;102879.69;;;-0.42;100.00
30421;BME280;17218;54.070;10.012;2023-03-01T04:52:46;102867.03;;;-0.77;100.00
30421;BME280;17218;54.070;10.012;2023-03-01T04:55:13;102877.53;;;-0.84;100.00
30421;BME280;17218;54.070;10.012;2023-03-01T04:57:40;102869.81;;;-0.86;100.00
30421;BME280;17218;54.070;10.012;2023-03-01T05:00:09;102871.91;;;-0.80;100.00
30421;BME280;17218;54.070;10.012;2023-03-01T05:02:47;102880.19;;;-0.82;100.00
30421;BME280;17218;54.070;10.012;2023-03-01T05:05:19;102876.59;;;-0.74;100.00
30421;BME280;17218;54.070;10.012;2023-03-01T05:07:45;102876.75;;;-0.83;100.00
30421;BME280;17218;54.070;10.012;2023-03-01T05:10:12;102873.72;;;-1.01;100.00
30421;BME280;17218;54.070;10.012;2023-03-01T05:12:38;102879.72;;;-1.01;100.00
30421;BME280;17218;54.070;10.012;2023-03-01T05:15:06;102875.66;;;-0.87;100.00
30421;BME280;17218;54.070;10.012;2023-03-01T05:17:33;102877.34;;;-0.75;100.00
30421;BME280;17218;54.070;10.012;2023-03-01T05:20:01;102871.94;;;-0.68;100.00
30421;BME280;17218;54.070;10.012;2023-03-01T05:22:32;102878.38;;;-0.61;100.00
30421;BME280;17218;54.070;10.012;2023-03-01T05:24:58;102870.84;;;-0.59;100.00
30421;BME280;17218;54.070;10.012;2023-03-01T05:27:25;102882.47;;;-0.63;100.00
30421;BME280;17218;54.070;10.012;2023-03-01T05:29:51;102872.25;;;-0.75;100.00
30421;BME280;17218;54.070;10.012;2023-03-01T05:32:17;102871.34;;;-0.88;100.00
30421;BME280;17218;54.070;10.012;2023-03-01T05:34:44;102867.00;;;-0.89;100.00
30421;BME280;17218;54.070;10.012;2023-03-01T05:37:13;102864.03;;;-0.83;100.00
30421;BME280;17218;54.070;10.012;2023-03-01T05:39:39;102866.47;;;-0.85;100.00
30421;BME280;17218;54.070;10.012;2023-03-01T05:42:10;102861.16;;;-0.76;100.00
30421;BME280;17218;54.070;10.012;2023-03-01T05:44:37;102862.41;;;-0.70;100.00
30421;BME280;17218;54.070;10.012;2023-03-01T05:47:04;102859.31;;;-0.66;100.00
30421;BME280;17218;54.070;10.012;2023-03-01T05:49:31;102853.25;;;-0.56;100.00
30421;BME280;17218;54.070;10.012;2023-03-01T05:51:58;102863.53;;;-0.55;100.00
30421;BME280;17218;54.070;10.012;2023-03-01T05:54:26;102854.91;;;-0.45;100.00
30421;BME280;17218;54.070;10.012;2023-03-01T05:56:52;102854.38;;;-0.41;100.00
30421;BME280;17218;54.070;10.012;2023-03-01T05:59:18;102857.69;;;-0.54;100.00
30421;BME280;17218;54.070;10.012;2023-03-01T06:01:45;102860.63;;;-0.72;100.00
30421;BME280;17218;54.070;10.012;2023-03-01T06:04:11;102864.59;;;-0.75;100.00
30421;BME280;17218;54.070;10.012;2023-03-01T06:06:38;102873.91;;;-0.76;100.00
30421;BME280;17218;54.070;10.012;2023-03-01T06:09:04;102880.78;;;-0.75;100.00
30421;BME280;17218;54.070;10.012;2023-03-01T06:11:35;102878.22;;;-0.75;100.00
30421;BME280;17218;54.070;10.012;2023-03-01T06:14:01;102875.53;;;-0.88;100.00
30421;BME280;17218;54.070;10.012;2023-03-01T06:16:28;102866.47;;;-0.85;100.00
30421;BME280;17218;54.070;10.012;2023-03-01T06:18:54;102880.00;;;-0.74;100.00
30421;BME280;17218;54.070;10.012;2023-03-01T06:21:21;102867.19;;;-0.63;100.00
30421;BME280;17218;54.070;10.012;2023-03-01T06:23:47;102867.28;;;-0.62;100.00
30421;BME280;17218;54.070;10.012;2023-03-01T06:26:14;102869.63;;;-0.53;100.00
30421;BME280;17218;54.070;10.012;2023-03-01T06:28:42;102862.44;;;-0.46;100.00
30421;BME280;17218;54.070;10.012;2023-03-01T06:31:11;102853.78;;;-0.73;100.00
30421;BME280;17218;54.070;10.012;2023-03-01T06:33:37;102855.31;;;-0.63;100.00
30421;BME280;17218;54.070;10.012;2023-03-01T06:36:04;102857.69;;;-0.54;100.00
30421;BME280;17218;54.070;10.012;2023-03-01T06:38:31;102854.81;;;-0.46;100.00
30421;BME280;17218;54.070;10.012;2023-03-01T06:40:57;102858.22;;;-0.58;100.00
30421;BME280;17218;54.070;10.012;2023-03-01T06:43:24;102857.19;;;-0.84;100.00
30421;BME280;17218;54.070;10.012;2023-03-01T06:45:52;102858.50;;;-0.89;100.00
30421;BME280;17218;54.070;10.012;2023-03-01T06:48:18;102860.53;;;-0.85;100.00
30421;BME280;17218;54.070;10.012;2023-03-01T06:50:45;102852.78;;;-0.75;100.00
30421;BME280;17218;54.070;10.012;2023-03-01T06:53:11;102859.84;;;-0.82;100.00
30421;BME280;17218;54.070;10.012;2023-03-01T06:55:38;102855.84;;;-0.91;100.00
30421;BME280;17218;54.070;10.012;2023-03-01T06:58:04;102858.56;;;-1.12;100.00
30421;BME280;17218;54.070;10.012;2023-03-01T07:00:31;102856.22;;;-1.09;100.00
30421;BME280;17218;54.070;10.012;2023-03-01T07:02:59;102865.78;;;-1.06;100.00
30421;BME280;17218;54.070;10.012;2023-03-01T07:05:27;102853.97;;;-0.93;100.00
30421;BME280;17218;54.070;10.012;2023-03-01T07:07:53;102860.84;;;-0.68;100.00
30421;BME280;17218;54.070;10.012;2023-03-01T07:10:20;102849.47;;;-0.62;100.00
30421;BME280;17218;54.070;10.012;2023-03-01T07:12:47;102855.09;;;-0.66;100.00
30421;BME280;17218;54.070;10.012;2023-03-01T07:15:13;102859.56;;;-0.63;100.00
30421;BME280;17218;54.070;10.012;2023-03-01T07:17:40;102852.03;;;-0.38;100.00
30421;BME280;17218;54.070;10.012;2023-03-01T07:20:09;102856.34;;;-0.37;100.00
30421;BME280;17218;54.070;10.012;2023-03-01T07:22:36;102846.91;;;-0.26;100.00
30421;BME280;17218;54.070;10.012;2023-03-01T07:25:05;102854.34;;;-0.17;100.00
30421;BME280;17218;54.070;10.012;2023-03-01T07:27:32;102847.47;;;-0.06;100.00
30421;BME280;17218;54.070;10.012;2023-03-01T07:29:58;102845.88;;;0.08;100.00
30421;BME280;17218;54.070;10.012;2023-03-01T07:32:25;102850.28;;;0.23;100.00
30421;BME280;17218;54.070;10.012;2023-03-01T07:34:51;102847.13;;;0.39;100.00
30421;BME280;17218;54.070;10.012;2023-03-01T07:37:19;102846.41;;;0.54;100.00
30421;BME280;17218;54.070;10.012;2023-03-01T07:39:45;102852.84;;;0.74;100.00
30421;BME280;17218;54.070;10.012;2023-03-01T07:42:12;102850.69;;;0.92;100.00
30421;BME280;17218;54.070;10.012;2023-03-01T07:44:38;102856.69;;;1.06;100.00
30421;BME280;17218;54.070;10.012;2023-03-01T07:47:05;102856.22;;;1.12;100.00
30421;BME280;17218;54.070;10.012;2023-03-01T07:49:31;102855.44;;;1.13;100.00
30421;BME280;17218;54.070;10.012;2023-03-01T07:51:58;102863.59;;;1.21;100.00
30421;BME280;17218;54.070;10.012;2023-03-01T07:54:26;102861.47;;;1.27;100.00
30421;BME280;17218;54.070;10.012;2023-03-01T07:56:52;102863.31;;;1.30;100.00
30421;BME280;17218;54.070;10.012;2023-03-01T07:59:26;102872.13;;;1.08;100.00
30421;BME280;17218;54.070;10.012;2023-03-01T08:01:54;102873.78;;;1.07;100.00
30421;BME280;17218;54.070;10.012;2023-03-01T08:04:21;102869.28;;;1.17;100.00
30421;BME280;17218;54.070;10.012;2023-03-01T08:06:48;102876.06;;;0.77;100.00
30421;BME280;17218;54.070;10.012;2023-03-01T08:09:14;102882.25;;;0.81;100.00
30421;BME280;17218;54.070;10.012;2023-03-01T08:11:42;102878.50;;;1.01;100.00
30421;BME280;17218;54.070;10.012;2023-03-01T08:14:09;102889.38;;;0.99;100.00
30421;BME280;17218;54.070;10.012;2023-03-01T08:16:36;102886.34;;;0.79;100.00
30421;BME280;17218;54.070;10.012;2023-03-01T08:19:06;102888.97;;;0.92;100.00
30421;BME280;17218;54.070;10.012;2023-03-01T08:21:32;102895.38;;;0.74;100.00
30421;BME280;17218;54.070;10.012;2023-03-01T08:24:00;102883.97;;;0.31;100.00
30421;BME280;17218;54.070;10.012;2023-03-01T08:26:27;102888.88;;;0.16;100.00
30421;BME280;17218;54.070;10.012;2023-03-01T08:28:55;102891.50;;;0.29;100.00
30421;BME280;17218;54.070;10.012;2023-03-01T08:31:23;102890.41;;;0.26;100.00
30421;BME280;17218;54.070;10.012;2023-03-01T08:33:52;102889.88;;;0.18;100.00
30421;BME280;17218;54.070;10.012;2023-03-01T08:36:20;102889.06;;;0.19;100.00
30421;BME280;17218;54.070;10.012;2023-03-01T08:38:47;102890.88;;;0.20;100.00
30421;BME280;17218;54.070;10.012;2023-03-01T08:41:14;102900.22;;;0.45;100.00
30421;BME280;17218;54.070;10.012;2023-03-01T08:43:40;102890.56;;;0.53;100.00
30421;BME280;17218;54.070;10.012;2023-03-01T08:46:08;102882.97;;;0.92;100.00
30421;BME280;17218;54.070;10.012;2023-03-01T08:48:35;102886.19;;;1.28;100.00
30421;BME280;17218;54.070;10.012;2023-03-01T08:51:07;102883.28;;;1.63;100.00
30421;BME280;17218;54.070;10.012;2023-03-01T08:53:33;102887.03;;;1.95;100.00
30421;BME280;17218;54.070;10.012;2023-03-01T08:56:00;102875.75;;;2.20;100.00
30421;BME280;17218;54.070;10.012;2023-03-01T08:58:27;102871.78;;;2.39;100.00
30421;BME280;17218;54.070;10.012;2023-03-01T09:00:54;102868.59;;;2.57;100.00
30421;BME280;17218;54.070;10.012;2023-03-01T09:03:23;102869.06;;;2.80;100.00
30421;BME280;17218;54.070;10.012;2023-03-01T09:05:50;102862.22;;;2.94;100.00
30421;BME280;17218;54.070;10.012;2023-03-01T09:08:16;102878.31;;;2.62;100.00
30421;BME280;17218;54.070;10.012;2023-03-01T09:10:43;102876.97;;;2.54;100.00
30421;BME280;17218;54.070;10.012;2023-03-01T09:13:10;102880.81;;;2.76;100.00
30421;BME280;17218;54.070;10.012;2023-03-01T09:15:36;102875.88;;;2.94;100.00
30421;BME280;17218;54.070;10.012;2023-03-01T09:18:03;102871.84;;;3.13;100.00
30421;BME280;17218;54.070;10.012;2023-03-01T09:20:31;102870.44;;;3.33;100.00
30421;BME280;17218;54.070;10.012;2023-03-01T09:22:58;102884.38;;;3.54;100.00
30421;BME280;17218;54.070;10.012;2023-03-01T09:25:24;102881.81;;;3.69;100.00
30421;BME280;17218;54.070;10.012;2023-03-01T09:27:51;102878.63;;;3.73;100.00
30421;BME280;17218;54.070;10.012;2023-03-01T09:30:18;102879.69;;;3.62;100.00
30421;BME280;17218;54.070;10.012;2023-03-01T09:32:45;102889.13;;;3.78;100.00
30421;BME280;17218;54.070;10.012;2023-03-01T09:35:11;102879.13;;;3.83;100.00
30421;BME280;17218;54.070;10.012;2023-03-01T09:37:39;102883.72;;;3.88;100.00
30421;BME280;17218;54.070;10.012;2023-03-01T09:40:12;102879.66;;;3.92;100.00
30421;BME280;17218;54.070;10.012;2023-03-01T09:42:47;102872.63;;;4.04;100.00
30421;BME280;17218;54.070;10.012;2023-03-01T09:45:23;102869.13;;;4.19;100.00
30421;BME280;17218;54.070;10.012;2023-03-01T09:47:52;102871.63;;;4.34;100.00
30421;BME280;17218;54.070;10.012;2023-03-01T09:50:21;102873.94;;;4.46;100.00
30421;BME280;17218;54.070;10.012;2023-03-01T09:52:54;102865.53;;;4.65;100.00
30421;BME280;17218;54.070;10.012;2023-03-01T09:55:30;102867.28;;;4.67;100.00
30421;BME280;17218;54.070;10.012;2023-03-01T09:58:00;102869.84;;;4.50;100.00
30421;BME280;17218;54.070;10.012;2023-03-01T10:00:37;102875.38;;;4.24;100.00
30421;BME280;17218;54.070;10.012;2023-03-01T10:03:13;102872.41;;;4.33;100.00
30421;BME280;17218;54.070;10.012;2023-03-01T10:05:48;102882.19;;;4.40;100.00
30421;BME280;17218;54.070;10.012;2023-03-01T10:08:28;102881.44;;;4.10;100.00
30421;BME280;17218;54.070;10.012;2023-03-01T10:10:57;102880.28;;;4.20;100.00
30421;BME280;17218;54.070;10.012;2023-03-01T10:13:29;102885.25;;;4.50;100.00
30421;BME280;17218;54.070;10.012;2023-03-01T10:16:02;102880.84;;;4.81;100.00
30421;BME280;17218;54.070;10.012;2023-03-01T10:18:33;102884.31;;;4.99;100.00
30421;BME280;17218;54.070;10.012;2023-03-01T10:21:07;102871.59;;;5.01;100.00
30421;BME280;17218;54.070;10.012;2023-03-01T10:23:37;102874.72;;;4.95;100.00
30421;BME280;17218;54.070;10.012;2023-03-01T10:26:12;102878.94;;;5.11;100.00
30421;BME280;17218;54.070;10.012;2023-03-01T10:28:49;102869.84;;;5.18;100.00
30421;BME280;17218;54.070;10.012;2023-03-01T10:31:19;102880.56;;;5.28;100.00
30421;BME280;17218;54.070;10.012;2023-03-01T10:33:47;102875.31;;;5.43;100.00
30421;BME280;17218;54.070;10.012;2023-03-01T10:36:20;102870.75;;;5.55;100.00
30421;BME280;17218;54.070;10.012;2023-03-01T10:38:50;102864.25;;;5.62;100.00
30421;BME280;17218;54.070;10.012;2023-03-01T10:41:17;102863.47;;;5.83;100.00
30421;BME280;17218;54.070;10.012;2023-03-01T10:43:46;102861.47;;;6.14;100.00
30421;BME280;17218;54.070;10.012;2023-03-01T10:46:31;102855.09;;;6.05;100.00
30421;BME280;17218;54.070;10.012;2023-03-01T10:49:07;102858.63;;;6.07;100.00
30421;BME280;17218;54.070;10.012;2023-03-01T10:51:34;102846.66;;;6.48;100.00
30421;BME280;17218;54.070;10.012;2023-03-01T10:54:02;102852.16;;;6.97;100.00
30421;BME280;17218;54.070;10.012;2023-03-01T10:56:45;102847.22;;;7.46;100.00
30421;BME280;17218;54.070;10.012;2023-03-01T10:59:22;102841.69;;;7.58;100.00
30421;BME280;17218;54.070;10.012;2023-03-01T11:02:03;102839.28;;;7.62;100.00
30421;BME280;17218;54.070;10.012;2023-03-01T11:04:30;102838.63;;;7.68;100.00
30421;BME280;17218;54.070;10.012;2023-03-01T11:07:01;102826.13;;;8.27;100.00
30421;BME280;17218;54.070;10.012;2023-03-01T11:09:33;102827.25;;;8.84;100.00
30421;BME280;17218;54.070;10.012;2023-03-01T11:12:05;102823.28;;;9.20;100.00
30421;BME280;17218;54.070;10.012;2023-03-01T11:14:46;102830.75;;;8.85;100.00
30421;BME280;17218;54.070;10.012;2023-03-01T11:17:17;102825.91;;;8.69;100.00
30421;BME280;17218;54.070;10.012;2023-03-01T11:19:59;102827.84;;;9.01;100.00
30421;BME280;17218;54.070;10.012;2023-03-01T11:22:27;102820.63;;;9.18;100.00
30421;BME280;17218;54.070;10.012;2023-03-01T11:24:55;102817.47;;;9.27;100.00
30421;BME280;17218;54.070;10.012;2023-03-01T11:27:25;102823.00;;;9.40;100.00
30421;BME280;17218;54.070;10.012;2023-03-01T11:29:55;102828.22;;;9.41;100.00
30421;BME280;17218;54.070;10.012;2023-03-01T11:32:26;102824.50;;;9.32;100.00
30421;BME280;17218;54.070;10.012;2023-03-01T11:34:57;102831.13;;;9.23;100.00
30421;BME280;17218;54.070;10.012;2023-03-01T11:37:32;102825.59;;;9.40;100.00
30421;BME280;17218;54.070;10.012;2023-03-01T11:40:11;102819.66;;;9.72;100.00
30421;BME280;17218;54.070;10.012;2023-03-01T11:42:48;102830.56;;;9.61;100.00
30421;BME280;17218;54.070;10.012;2023-03-01T11:45:16;102829.41;;;9.51;100.00
30421;BME280;17218;54.070;10.012;2023-03-01T11:48:14;102823.25;;;9.48;100.00
30421;BME280;17218;54.070;10.012;2023-03-01T11:50:48;102820.88;;;9.26;100.00
30421;BME280;17218;54.070;10.012;2023-03-01T11:53:31;102812.03;;;10.07;100.00
30421;BME280;17218;54.070;10.012;2023-03-01T11:56:14;102798.16;;;12.29;100.00
30421;BME280;17218;54.070;10.012;2023-03-01T11:59:02;102792.69;;;13.81;100.00
30421;BME280;17218;54.070;10.012;2023-03-01T12:01:40;102787.97;;;15.42;100.00
30421;BME280;17218;54.070;10.012;2023-03-01T12:07:07;102759.69;;;20.54;65.54
30421;BME280;17218;54.070;10.012;2023-03-01T12:09:52;102760.84;;;22.85;56.75
30421;BME280;17218;54.070;10.012;2023-03-01T12:12:31;102752.97;;;24.32;45.88
30421;BME280;17218;54.070;10.012;2023-03-01T12:15:28;102750.16;;;24.36;39.20
30421;BME280;17218;54.070;10.012;2023-03-01T12:18:30;102754.84;;;24.28;42.91
30421;BME280;17218;54.070;10.012;2023-03-01T12:21:08;102745.81;;;26.02;38.03
30421;BME280;17218;54.070;10.012;2023-03-01T12:24:12;102749.25;;;26.68;36.46
30421;BME280;17218;54.070;10.012;2023-03-01T12:26:47;102743.44;;;26.98;34.26
30421;BME280;17218;54.070;10.012;2023-03-01T12:29:24;102736.56;;;27.89;34.08
30421;BME280;17218;54.070;10.012;2023-03-01T12:32:08;102731.34;;;27.31;31.48
30421;BME280;17218;54.070;10.012;2023-03-01T12:35:01;102733.72;;;26.38;31.96
30421;BME280;17218;54.070;10.012;2023-03-01T12:37:39;102736.56;;;26.54;33.16
30421;BME280;17218;54.070;10.012;2023-03-01T12:40:24;102738.88;;;25.77;34.21
30421;BME280;17218;54.070;10.012;2023-03-01T12:43:02;102740.44;;;25.12;33.68
30421;BME280;17218;54.070;10.012;2023-03-01T12:45:47;102730.03;;;25.07;35.65
30421;BME280;17218;54.070;10.012;2023-03-01T12:48:31;102713.78;;;26.48;34.39
30421;BME280;17218;54.070;10.012;2023-03-01T12:51:04;102709.63;;;28.31;33.18
30421;BME280;17218;54.070;10.012;2023-03-01T12:53:35;102708.72;;;29.16;30.27